sensor_id;sensor_type;location;lat;lon;timestamp;P1;durP1;ratioP1;P2;durP2;ratioP2
20908;SDS011;10614;53.198;6.570;2023-08-01T00:00:41;24.45;;;7.53;;
20908;SDS011;10614;53.198;6.570;2023-08-01T00:02:47;24.15;;;7.65;;
20908;SDS011;10614;53.198;6.570;2023-08-01T00:04:53;26.05;;;8.80;;
20908;SDS011;10614;53.198;6.570;2023-08-01T00:06:57;26.52;;;8.93;;
20908;SDS011;10614;53.198;6.570;2023-08-01T00:09:02;25.60;;;8.38;;
20908;SDS011;10614;53.198;6.570;2023-08-01T00:11:08;24.13;;;9.68;;
20908;SDS011;10614;53.198;6.570;2023-08-01T00:13:11;20.77;;;8.77;;
20908;SDS011;10614;53.198;6.570;2023-08-01T00:15:15;26.75;;;8.52;;
20908;SDS011;10614;53.198;6.570;2023-08-01T00:17:20;25.92;;;9.27;;
20908;SDS011;10614;53.198;6.570;2023-08-01T00:19:27;27.52;;;8.95;;
20908;SDS011;10614;53.198;6.570;2023-08-01T00:21:31;20.38;;;7.90;;
20908;SDS011;10614;53.198;6.570;2023-08-01T00:23:36;21.83;;;8.77;;
20908;SDS011;10614;53.198;6.570;2023-08-01T00:25:39;25.35;;;8.73;;
20908;SDS011;10614;53.198;6.570;2023-08-01T00:27:42;23.95;;;8.50;;
20908;SDS011;10614;53.198;6.570;2023-08-01T00:29:48;21.77;;;8.45;;
20908;SDS011;10614;53.198;6.570;2023-08-01T00:31:52;22.35;;;8.80;;
20908;SDS011;10614;53.198;6.570;2023-08-01T00:33:55;20.53;;;8.27;;
20908;SDS011;10614;53.198;6.570;2023-08-01T00:36:01;20.25;;;8.88;;
20908;SDS011;10614;53.198;6.570;2023-08-01T00:38:09;21.15;;;8.48;;
20908;SDS011;10614;53.198;6.570;2023-08-01T00:40:13;21.77;;;8.73;;
20908;SDS011;10614;53.198;6.570;2023-08-01T00:42:16;26.30;;;8.85;;
20908;SDS011;10614;53.198;6.570;2023-08-01T00:44:19;13.73;;;7.60;;
20908;SDS011;10614;53.198;6.570;2023-08-01T00:46:23;18.20;;;7.93;;
20908;SDS011;10614;53.198;6.570;2023-08-01T00:48:28;22.02;;;8.90;;
20908;SDS011;10614;53.198;6.570;2023-08-01T00:50:31;22.02;;;8.13;;
20908;SDS011;10614;53.198;6.570;2023-08-01T00:52:36;18.67;;;8.13;;
20908;SDS011;10614;53.198;6.570;2023-08-01T00:54:39;24.83;;;8.73;;
20908;SDS011;10614;53.198;6.570;2023-08-01T00:56:42;22.23;;;8.50;;
20908;SDS011;10614;53.198;6.570;2023-08-01T00:58:45;18.85;;;7.95;;
20908;SDS011;10614;53.198;6.570;2023-08-01T01:00:51;17.42;;;8.43;;
20908;SDS011;10614;53.198;6.570;2023-08-01T01:02:53;24.23;;;9.27;;
20908;SDS011;10614;53.198;6.570;2023-08-01T01:04:57;15.18;;;8.02;;
20908;SDS011;10614;53.198;6.570;2023-08-01T01:07:02;18.33;;;9.18;;
20908;SDS011;10614;53.198;6.570;2023-08-01T01:09:15;15.27;;;7.47;;
20908;SDS011;10614;53.198;6.570;2023-08-01T01:11:18;17.02;;;7.88;;
20908;SDS011;10614;53.198;6.570;2023-08-01T01:13:20;18.67;;;8.40;;
20908;SDS011;10614;53.198;6.570;2023-08-01T01:15:25;22.73;;;8.95;;
20908;SDS011;10614;53.198;6.570;2023-08-01T01:17:28;21.75;;;9.13;;
20908;SDS011;10614;53.198;6.570;2023-08-01T01:19:30;22.55;;;8.85;;
20908;SDS011;10614;53.198;6.570;2023-08-01T01:21:34;15.32;;;8.05;;
20908;SDS011;10614;53.198;6.570;2023-08-01T01:25:40;17.83;;;8.48;;
20908;SDS011;10614;53.198;6.570;2023-08-01T01:27:44;18.73;;;8.20;;
20908;SDS011;10614;53.198;6.570;2023-08-01T01:29:46;12.25;;;7.38;;
20908;SDS011;10614;53.198;6.570;2023-08-01T01:31:50;18.80;;;8.93;;
20908;SDS011;10614;53.198;6.570;2023-08-01T01:33:52;13.55;;;7.60;;
20908;SDS011;10614;53.198;6.570;2023-08-01T01:35:55;14.98;;;7.97;;
20908;SDS011;10614;53.198;6.570;2023-08-01T01:37:59;15.50;;;8.00;;
20908;SDS011;10614;53.198;6.570;2023-08-01T01:40:04;14.98;;;8.63;;
20908;SDS011;10614;53.198;6.570;2023-08-01T01:42:07;14.38;;;7.43;;
20908;SDS011;10614;53.198;6.570;2023-08-01T01:44:09;13.10;;;7.53;;
20908;SDS011;10614;53.198;6.570;2023-08-01T01:46:11;13.98;;;7.28;;
20908;SDS011;10614;53.198;6.570;2023-08-01T01:48:13;14.82;;;7.60;;
20908;SDS011;10614;53.198;6.570;2023-08-01T01:50:15;17.33;;;8.15;;
20908;SDS011;10614;53.198;6.570;2023-08-01T01:52:18;15.73;;;7.95;;
20908;SDS011;10614;53.198;6.570;2023-08-01T01:54:25;15.27;;;7.82;;
20908;SDS011;10614;53.198;6.570;2023-08-01T01:56:29;13.80;;;7.22;;
20908;SDS011;10614;53.198;6.570;2023-08-01T01:58:31;13.52;;;7.15;;
20908;SDS011;10614;53.198;6.570;2023-08-01T02:00:32;17.25;;;8.07;;
20908;SDS011;10614;53.198;6.570;2023-08-01T02:02:34;13.05;;;7.47;;
20908;SDS011;10614;53.198;6.570;2023-08-01T02:04:35;13.55;;;7.15;;
20908;SDS011;10614;53.198;6.570;2023-08-01T02:06:37;13.20;;;7.53;;
20908;SDS011;10614;53.198;6.570;2023-08-01T02:08:40;15.70;;;7.93;;
20908;SDS011;10614;53.198;6.570;2023-08-01T02:10:44;12.90;;;6.93;;
20908;SDS011;10614;53.198;6.570;2023-08-01T02:12:46;13.85;;;7.47;;
20908;SDS011;10614;53.198;6.570;2023-08-01T02:14:48;13.07;;;6.85;;
20908;SDS011;10614;53.198;6.570;2023-08-01T02:16:50;16.92;;;8.30;;
20908;SDS011;10614;53.198;6.570;2023-08-01T02:18:52;16.23;;;7.35;;
20908;SDS011;10614;53.198;6.570;2023-08-01T02:20:56;19.13;;;8.50;;
20908;SDS011;10614;53.198;6.570;2023-08-01T02:22:59;17.38;;;7.57;;
20908;SDS011;10614;53.198;6.570;2023-08-01T02:25:01;19.25;;;8.00;;
20908;SDS011;10614;53.198;6.570;2023-08-01T02:27:08;20.33;;;9.00;;
20908;SDS011;10614;53.198;6.570;2023-08-01T02:29:10;19.80;;;8.43;;
20908;SDS011;10614;53.198;6.570;2023-08-01T02:31:13;19.48;;;8.27;;
20908;SDS011;10614;53.198;6.570;2023-08-01T02:33:18;21.70;;;8.35;;
20908;SDS011;10614;53.198;6.570;2023-08-01T02:35:20;16.73;;;8.60;;
20908;SDS011;10614;53.198;6.570;2023-08-01T02:37:21;13.13;;;7.70;;
20908;SDS011;10614;53.198;6.570;2023-08-01T02:39:25;16.75;;;8.57;;
20908;SDS011;10614;53.198;6.570;2023-08-01T02:41:27;15.43;;;7.90;;
20908;SDS011;10614;53.198;6.570;2023-08-01T02:43:30;18.80;;;9.05;;
20908;SDS011;10614;53.198;6.570;2023-08-01T02:45:32;21.33;;;8.63;;
20908;SDS011;10614;53.198;6.570;2023-08-01T02:47:34;20.80;;;8.43;;
20908;SDS011;10614;53.198;6.570;2023-08-01T02:49:36;16.85;;;8.10;;
20908;SDS011;10614;53.198;6.570;2023-08-01T02:51:38;14.25;;;7.40;;
20908;SDS011;10614;53.198;6.570;2023-08-01T02:53:40;13.65;;;7.25;;
20908;SDS011;10614;53.198;6.570;2023-08-01T02:55:42;19.35;;;9.02;;
20908;SDS011;10614;53.198;6.570;2023-08-01T02:57:46;17.23;;;8.32;;
20908;SDS011;10614;53.198;6.570;2023-08-01T02:59:49;19.90;;;8.70;;
20908;SDS011;10614;53.198;6.570;2023-08-01T03:01:50;15.40;;;7.80;;
20908;SDS011;10614;53.198;6.570;2023-08-01T03:03:52;21.77;;;9.27;;
20908;SDS011;10614;53.198;6.570;2023-08-01T03:05:55;20.80;;;9.45;;
20908;SDS011;10614;53.198;6.570;2023-08-01T03:07:56;16.80;;;8.40;;
20908;SDS011;10614;53.198;6.570;2023-08-01T03:09:58;22.15;;;8.82;;
20908;SDS011;10614;53.198;6.570;2023-08-01T03:12:00;16.98;;;7.75;;
20908;SDS011;10614;53.198;6.570;2023-08-01T03:14:02;14.35;;;8.20;;
20908;SDS011;10614;53.198;6.570;2023-08-01T03:16:07;17.13;;;8.18;;
20908;SDS011;10614;53.198;6.570;2023-08-01T03:18:10;15.75;;;7.82;;
20908;SDS011;10614;53.198;6.570;2023-08-01T03:20:11;20.95;;;9.23;;
20908;SDS011;10614;53.198;6.570;2023-08-01T03:22:13;18.45;;;9.80;;
20908;SDS011;10614;53.198;6.570;2023-08-01T03:24:15;21.98;;;9.18;;
20908;SDS011;10614;53.198;6.570;2023-08-01T03:26:19;16.98;;;9.25;;
20908;SDS011;10614;53.198;6.570;2023-08-01T03:28:21;25.13;;;10.13;;
20908;SDS011;10614;53.198;6.570;2023-08-01T03:30:22;33.90;;;11.82;;
20908;SDS011;10614;53.198;6.570;2023-08-01T03:32:25;29.58;;;11.10;;
20908;SDS011;10614;53.198;6.570;2023-08-01T03:34:27;26.88;;;11.75;;
20908;SDS011;10614;53.198;6.570;2023-08-01T03:36:29;27.83;;;12.23;;
20908;SDS011;10614;53.198;6.570;2023-08-01T03:38:31;35.05;;;12.65;;
20908;SDS011;10614;53.198;6.570;2023-08-01T03:40:33;31.77;;;12.68;;
20908;SDS011;10614;53.198;6.570;2023-08-01T03:42:35;19.42;;;10.57;;
20908;SDS011;10614;53.198;6.570;2023-08-01T03:44:37;26.67;;;12.25;;
20908;SDS011;10614;53.198;6.570;2023-08-01T03:46:41;29.27;;;12.18;;
20908;SDS011;10614;53.198;6.570;2023-08-01T03:48:44;22.73;;;11.50;;
20908;SDS011;10614;53.198;6.570;2023-08-01T03:50:46;26.88;;;11.95;;
20908;SDS011;10614;53.198;6.570;2023-08-01T03:52:49;21.70;;;10.95;;
20908;SDS011;10614;53.198;6.570;2023-08-01T03:54:53;22.75;;;10.23;;
20908;SDS011;10614;53.198;6.570;2023-08-01T03:56:58;21.42;;;10.40;;
20908;SDS011;10614;53.198;6.570;2023-08-01T03:59:00;33.28;;;11.30;;
20908;SDS011;10614;53.198;6.570;2023-08-01T04:01:04;23.67;;;10.63;;
20908;SDS011;10614;53.198;6.570;2023-08-01T04:03:09;20.20;;;10.35;;
20908;SDS011;10614;53.198;6.570;2023-08-01T04:05:12;25.67;;;10.57;;
20908;SDS011;10614;53.198;6.570;2023-08-01T04:07:14;21.35;;;9.93;;
20908;SDS011;10614;53.198;6.570;2023-08-01T04:09:16;19.48;;;9.57;;
20908;SDS011;10614;53.198;6.570;2023-08-01T04:11:19;20.85;;;8.52;;
20908;SDS011;10614;53.198;6.570;2023-08-01T04:13:21;23.27;;;8.15;;
20908;SDS011;10614;53.198;6.570;2023-08-01T04:15:23;17.25;;;8.30;;
20908;SDS011;10614;53.198;6.570;2023-08-01T04:17:25;21.40;;;7.55;;
20908;SDS011;10614;53.198;6.570;2023-08-01T04:19:28;21.88;;;7.03;;
20908;SDS011;10614;53.198;6.570;2023-08-01T04:21:31;14.25;;;6.72;;
20908;SDS011;10614;53.198;6.570;2023-08-01T04:23:33;19.50;;;6.43;;
20908;SDS011;10614;53.198;6.570;2023-08-01T04:25:34;19.48;;;6.50;;
20908;SDS011;10614;53.198;6.570;2023-08-01T04:27:36;32.35;;;16.42;;
20908;SDS011;10614;53.198;6.570;2023-08-01T04:29:37;21.67;;;8.65;;
20908;SDS011;10614;53.198;6.570;2023-08-01T04:31:39;18.33;;;7.28;;
20908;SDS011;10614;53.198;6.570;2023-08-01T04:33:41;21.65;;;7.00;;
20908;SDS011;10614;53.198;6.570;2023-08-01T04:35:45;22.65;;;6.90;;
20908;SDS011;10614;53.198;6.570;2023-08-01T04:37:48;18.38;;;6.22;;
20908;SDS011;10614;53.198;6.570;2023-08-01T04:39:50;17.73;;;6.07;;
20908;SDS011;10614;53.198;6.570;2023-08-01T04:41:52;17.45;;;5.97;;
20908;SDS011;10614;53.198;6.570;2023-08-01T04:43:54;15.50;;;5.40;;
20908;SDS011;10614;53.198;6.570;2023-08-01T04:45:55;17.95;;;5.95;;
20908;SDS011;10614;53.198;6.570;2023-08-01T04:47:57;19.42;;;5.63;;
20908;SDS011;10614;53.198;6.570;2023-08-01T04:49:59;19.27;;;6.18;;
20908;SDS011;10614;53.198;6.570;2023-08-01T04:52:01;13.18;;;5.93;;
20908;SDS011;10614;53.198;6.570;2023-08-01T04:54:05;18.73;;;6.07;;
20908;SDS011;10614;53.198;6.570;2023-08-01T04:56:06;14.95;;;5.68;;
20908;SDS011;10614;53.198;6.570;2023-08-01T04:58:09;18.73;;;5.07;;
20908;SDS011;10614;53.198;6.570;2023-08-01T05:00:11;15.27;;;5.32;;
20908;SDS011;10614;53.198;6.570;2023-08-01T05:02:13;13.23;;;5.50;;
20908;SDS011;10614;53.198;6.570;2023-08-01T05:04:15;15.15;;;5.65;;
20908;SDS011;10614;53.198;6.570;2023-08-01T05:06:17;21.48;;;5.97;;
20908;SDS011;10614;53.198;6.570;2023-08-01T05:08:19;14.77;;;6.38;;
20908;SDS011;10614;53.198;6.570;2023-08-01T05:10:23;19.90;;;6.78;;
20908;SDS011;10614;53.198;6.570;2023-08-01T05:12:25;13.93;;;5.63;;
20908;SDS011;10614;53.198;6.570;2023-08-01T05:14:27;18.75;;;5.40;;
20908;SDS011;10614;53.198;6.570;2023-08-01T05:16:29;13.23;;;4.93;;
20908;SDS011;10614;53.198;6.570;2023-08-01T05:18:30;15.02;;;4.47;;
20908;SDS011;10614;53.198;6.570;2023-08-01T05:20:33;12.27;;;3.75;;
20908;SDS011;10614;53.198;6.570;2023-08-01T05:22:35;8.75;;;3.53;;
20908;SDS011;10614;53.198;6.570;2023-08-01T05:24:37;12.95;;;4.10;;
20908;SDS011;10614;53.198;6.570;2023-08-01T05:26:40;12.93;;;3.85;;
20908;SDS011;10614;53.198;6.570;2023-08-01T05:28:42;8.73;;;3.30;;
20908;SDS011;10614;53.198;6.570;2023-08-01T05:30:43;8.55;;;3.25;;
20908;SDS011;10614;53.198;6.570;2023-08-01T05:32:45;10.23;;;3.45;;
20908;SDS011;10614;53.198;6.570;2023-08-01T05:34:47;9.23;;;3.13;;
20908;SDS011;10614;53.198;6.570;2023-08-01T05:36:49;7.95;;;3.38;;
20908;SDS011;10614;53.198;6.570;2023-08-01T05:38:52;9.10;;;4.05;;
20908;SDS011;10614;53.198;6.570;2023-08-01T05:40:53;10.63;;;4.15;;
20908;SDS011;10614;53.198;6.570;2023-08-01T05:42:57;12.27;;;4.07;;
20908;SDS011;10614;53.198;6.570;2023-08-01T05:44:59;12.55;;;4.88;;
20908;SDS011;10614;53.198;6.570;2023-08-01T05:47:01;12.10;;;4.18;;
20908;SDS011;10614;53.198;6.570;2023-08-01T05:49:03;9.38;;;4.43;;
20908;SDS011;10614;53.198;6.570;2023-08-01T05:51:06;13.57;;;4.90;;
20908;SDS011;10614;53.198;6.570;2023-08-01T05:53:07;12.90;;;5.20;;
20908;SDS011;10614;53.198;6.570;2023-08-01T05:55:09;11.65;;;4.80;;
20908;SDS011;10614;53.198;6.570;2023-08-01T05:57:11;12.95;;;4.35;;
20908;SDS011;10614;53.198;6.570;2023-08-01T05:59:14;9.55;;;4.43;;
20908;SDS011;10614;53.198;6.570;2023-08-01T06:01:15;9.65;;;5.35;;
20908;SDS011;10614;53.198;6.570;2023-08-01T06:03:17;11.80;;;5.35;;
20908;SDS011;10614;53.198;6.570;2023-08-01T06:05:19;10.98;;;6.03;;
20908;SDS011;10614;53.198;6.570;2023-08-01T06:07:21;13.02;;;7.75;;
20908;SDS011;10614;53.198;6.570;2023-08-01T06:09:23;12.45;;;6.28;;
20908;SDS011;10614;53.198;6.570;2023-08-01T06:11:24;11.50;;;5.40;;
20908;SDS011;10614;53.198;6.570;2023-08-01T06:13:27;10.98;;;4.10;;
20908;SDS011;10614;53.198;6.570;2023-08-01T06:15:29;9.20;;;4.88;;
20908;SDS011;10614;53.198;6.570;2023-08-01T06:17:31;11.80;;;4.75;;
20908;SDS011;10614;53.198;6.570;2023-08-01T06:19:33;14.98;;;5.45;;
20908;SDS011;10614;53.198;6.570;2023-08-01T06:21:35;13.77;;;5.40;;
20908;SDS011;10614;53.198;6.570;2023-08-01T06:23:37;13.10;;;5.47;;
20908;SDS011;10614;53.198;6.570;2023-08-01T06:25:38;15.70;;;5.43;;
20908;SDS011;10614;53.198;6.570;2023-08-01T06:27:40;21.23;;;6.13;;
20908;SDS011;10614;53.198;6.570;2023-08-01T06:29:42;15.98;;;5.85;;
20908;SDS011;10614;53.198;6.570;2023-08-01T06:31:44;13.75;;;5.57;;
20908;SDS011;10614;53.198;6.570;2023-08-01T06:33:48;9.85;;;4.93;;
20908;SDS011;10614;53.198;6.570;2023-08-01T06:35:50;14.43;;;4.85;;
20908;SDS011;10614;53.198;6.570;2023-08-01T06:37:52;12.90;;;4.82;;
20908;SDS011;10614;53.198;6.570;2023-08-01T06:39:54;8.63;;;4.70;;
20908;SDS011;10614;53.198;6.570;2023-08-01T06:41:59;12.00;;;4.88;;
20908;SDS011;10614;53.198;6.570;2023-08-01T06:44:02;15.50;;;5.15;;
20908;SDS011;10614;53.198;6.570;2023-08-01T06:46:06;10.55;;;4.32;;
20908;SDS011;10614;53.198;6.570;2023-08-01T06:48:13;8.25;;;4.30;;
20908;SDS011;10614;53.198;6.570;2023-08-01T06:50:15;12.18;;;4.03;;
20908;SDS011;10614;53.198;6.570;2023-08-01T06:52:17;37.65;;;7.10;;
20908;SDS011;10614;53.198;6.570;2023-08-01T06:54:19;9.73;;;3.60;;
20908;SDS011;10614;53.198;6.570;2023-08-01T06:56:21;9.50;;;3.90;;
20908;SDS011;10614;53.198;6.570;2023-08-01T06:58:23;10.10;;;3.92;;
20908;SDS011;10614;53.198;6.570;2023-08-01T07:00:25;10.23;;;3.75;;
20908;SDS011;10614;53.198;6.570;2023-08-01T07:02:27;7.95;;;3.60;;
20908;SDS011;10614;53.198;6.570;2023-08-01T07:04:30;10.43;;;4.03;;
20908;SDS011;10614;53.198;6.570;2023-08-01T07:06:32;13.38;;;3.50;;
20908;SDS011;10614;53.198;6.570;2023-08-01T07:08:34;8.77;;;3.20;;
20908;SDS011;10614;53.198;6.570;2023-08-01T07:10:36;10.48;;;3.30;;
20908;SDS011;10614;53.198;6.570;2023-08-01T07:12:38;8.82;;;2.65;;
20908;SDS011;10614;53.198;6.570;2023-08-01T07:14:40;5.15;;;2.28;;
20908;SDS011;10614;53.198;6.570;2023-08-01T07:16:42;7.55;;;2.63;;
20908;SDS011;10614;53.198;6.570;2023-08-01T07:18:44;8.77;;;2.83;;
20908;SDS011;10614;53.198;6.570;2023-08-01T07:20:49;8.73;;;2.70;;
20908;SDS011;10614;53.198;6.570;2023-08-01T07:23:00;10.88;;;3.00;;
20908;SDS011;10614;53.198;6.570;2023-08-01T07:25:03;9.48;;;2.17;;
20908;SDS011;10614;53.198;6.570;2023-08-01T07:27:06;6.47;;;2.08;;
20908;SDS011;10614;53.198;6.570;2023-08-01T07:29:07;7.75;;;2.17;;
20908;SDS011;10614;53.198;6.570;2023-08-01T07:31:10;9.05;;;2.10;;
20908;SDS011;10614;53.198;6.570;2023-08-01T07:33:12;6.50;;;1.85;;
20908;SDS011;10614;53.198;6.570;2023-08-01T07:35:14;9.02;;;2.00;;
20908;SDS011;10614;53.198;6.570;2023-08-01T07:37:18;8.18;;;1.95;;
20908;SDS011;10614;53.198;6.570;2023-08-01T07:39:19;12.25;;;2.10;;
20908;SDS011;10614;53.198;6.570;2023-08-01T07:41:21;10.25;;;2.00;;
20908;SDS011;10614;53.198;6.570;2023-08-01T07:43:25;9.48;;;2.15;;
20908;SDS011;10614;53.198;6.570;2023-08-01T07:45:29;11.05;;;2.13;;
20908;SDS011;10614;53.198;6.570;2023-08-01T07:47:33;12.10;;;2.35;;
20908;SDS011;10614;53.198;6.570;2023-08-01T07:49:35;9.82;;;2.00;;
20908;SDS011;10614;53.198;6.570;2023-08-01T07:51:37;7.20;;;1.90;;
20908;SDS011;10614;53.198;6.570;2023-08-01T07:53:40;10.98;;;2.13;;
20908;SDS011;10614;53.198;6.570;2023-08-01T07:55:41;11.95;;;2.38;;
20908;SDS011;10614;53.198;6.570;2023-08-01T07:57:42;11.38;;;2.47;;
20908;SDS011;10614;53.198;6.570;2023-08-01T07:59:44;6.65;;;1.80;;
20908;SDS011;10614;53.198;6.570;2023-08-01T08:01:46;6.38;;;1.92;;
20908;SDS011;10614;53.198;6.570;2023-08-01T08:03:48;8.57;;;2.45;;
20908;SDS011;10614;53.198;6.570;2023-08-01T08:05:50;8.68;;;2.15;;
20908;SDS011;10614;53.198;6.570;2023-08-01T08:07:52;10.15;;;1.95;;
20908;SDS011;10614;53.198;6.570;2023-08-01T08:09:55;5.50;;;1.55;;
20908;SDS011;10614;53.198;6.570;2023-08-01T08:11:57;6.65;;;1.90;;
20908;SDS011;10614;53.198;6.570;2023-08-01T08:13:59;6.85;;;2.03;;
20908;SDS011;10614;53.198;6.570;2023-08-01T08:16:00;7.78;;;2.15;;
20908;SDS011;10614;53.198;6.570;2023-08-01T08:18:02;6.38;;;2.05;;
20908;SDS011;10614;53.198;6.570;2023-08-01T08:20:05;5.93;;;1.77;;
20908;SDS011;10614;53.198;6.570;2023-08-01T08:22:07;7.28;;;2.33;;
20908;SDS011;10614;53.198;6.570;2023-08-01T08:24:10;9.57;;;2.70;;
20908;SDS011;10614;53.198;6.570;2023-08-01T08:26:13;8.77;;;2.40;;
20908;SDS011;10614;53.198;6.570;2023-08-01T08:28:16;9.35;;;2.50;;
20908;SDS011;10614;53.198;6.570;2023-08-01T08:30:28;5.65;;;2.20;;
20908;SDS011;10614;53.198;6.570;2023-08-01T08:32:30;9.75;;;2.30;;
20908;SDS011;10614;53.198;6.570;2023-08-01T08:34:32;9.15;;;2.53;;
20908;SDS011;10614;53.198;6.570;2023-08-01T08:36:34;8.00;;;2.63;;
20908;SDS011;10614;53.198;6.570;2023-08-01T08:38:36;14.73;;;2.83;;
20908;SDS011;10614;53.198;6.570;2023-08-01T08:40:38;11.05;;;2.85;;
20908;SDS011;10614;53.198;6.570;2023-08-01T08:42:46;14.10;;;2.92;;
20908;SDS011;10614;53.198;6.570;2023-08-01T08:44:49;8.77;;;2.78;;
20908;SDS011;10614;53.198;6.570;2023-08-01T08:46:55;12.10;;;2.65;;
20908;SDS011;10614;53.198;6.570;2023-08-01T08:49:01;10.27;;;3.00;;
20908;SDS011;10614;53.198;6.570;2023-08-01T08:51:04;9.98;;;3.10;;
20908;SDS011;10614;53.198;6.570;2023-08-01T08:55:12;9.75;;;3.40;;
20908;SDS011;10614;53.198;6.570;2023-08-01T08:57:15;12.38;;;3.17;;
20908;SDS011;10614;53.198;6.570;2023-08-01T08:59:21;8.82;;;3.22;;
20908;SDS011;10614;53.198;6.570;2023-08-01T09:01:25;11.80;;;3.55;;
20908;SDS011;10614;53.198;6.570;2023-08-01T09:03:27;11.48;;;3.42;;
20908;SDS011;10614;53.198;6.570;2023-08-01T09:05:31;7.75;;;2.90;;
20908;SDS011;10614;53.198;6.570;2023-08-01T09:07:38;11.30;;;3.50;;
20908;SDS011;10614;53.198;6.570;2023-08-01T09:09:43;8.23;;;2.83;;
20908;SDS011;10614;53.198;6.570;2023-08-01T09:11:45;11.18;;;2.85;;
20908;SDS011;10614;53.198;6.570;2023-08-01T09:13:48;11.38;;;3.00;;
20908;SDS011;10614;53.198;6.570;2023-08-01T09:15:53;14.73;;;3.17;;
20908;SDS011;10614;53.198;6.570;2023-08-01T09:17:55;9.13;;;3.47;;
20908;SDS011;10614;53.198;6.570;2023-08-01T09:20:03;17.08;;;3.50;;
20908;SDS011;10614;53.198;6.570;2023-08-01T09:22:09;22.52;;;5.00;;
20908;SDS011;10614;53.198;6.570;2023-08-01T09:24:13;9.48;;;2.95;;
20908;SDS011;10614;53.198;6.570;2023-08-01T09:26:16;10.52;;;3.25;;
20908;SDS011;10614;53.198;6.570;2023-08-01T09:28:20;7.18;;;2.55;;
20908;SDS011;10614;53.198;6.570;2023-08-01T09:30:27;10.35;;;2.75;;
20908;SDS011;10614;53.198;6.570;2023-08-01T09:32:31;8.73;;;2.53;;
20908;SDS011;10614;53.198;6.570;2023-08-01T09:34:34;6.63;;;2.40;;
20908;SDS011;10614;53.198;6.570;2023-08-01T09:36:36;7.95;;;2.38;;
20908;SDS011;10614;53.198;6.570;2023-08-01T09:38:39;6.03;;;2.05;;
20908;SDS011;10614;53.198;6.570;2023-08-01T09:40:42;4.40;;;2.08;;
20908;SDS011;10614;53.198;6.570;2023-08-01T09:42:45;6.20;;;1.98;;
20908;SDS011;10614;53.198;6.570;2023-08-01T09:44:47;6.18;;;2.40;;
20908;SDS011;10614;53.198;6.570;2023-08-01T09:46:55;6.72;;;2.30;;
20908;SDS011;10614;53.198;6.570;2023-08-01T09:49:07;6.30;;;1.92;;
20908;SDS011;10614;53.198;6.570;2023-08-01T09:51:10;9.00;;;2.30;;
20908;SDS011;10614;53.198;6.570;2023-08-01T09:53:12;6.13;;;2.30;;
20908;SDS011;10614;53.198;6.570;2023-08-01T09:55:13;8.68;;;2.38;;
20908;SDS011;10614;53.198;6.570;2023-08-01T09:57:15;8.27;;;2.60;;
20908;SDS011;10614;53.198;6.570;2023-08-01T09:59:18;10.52;;;2.85;;
20908;SDS011;10614;53.198;6.570;2023-08-01T10:01:23;10.18;;;2.72;;
20908;SDS011;10614;53.198;6.570;2023-08-01T10:03:27;8.40;;;2.80;;
20908;SDS011;10614;53.198;6.570;2023-08-01T10:05:32;9.80;;;2.92;;
20908;SDS011;10614;53.198;6.570;2023-08-01T10:07:35;9.30;;;2.60;;
20908;SDS011;10614;53.198;6.570;2023-08-01T10:09:40;10.90;;;3.13;;
20908;SDS011;10614;53.198;6.570;2023-08-01T10:11:45;10.90;;;2.83;;
20908;SDS011;10614;53.198;6.570;2023-08-01T10:13:51;8.73;;;2.30;;
20908;SDS011;10614;53.198;6.570;2023-08-01T10:15:54;10.32;;;2.55;;
20908;SDS011;10614;53.198;6.570;2023-08-01T10:17:57;7.00;;;2.55;;
20908;SDS011;10614;53.198;6.570;2023-08-01T10:20:03;7.03;;;2.60;;
20908;SDS011;10614;53.198;6.570;2023-08-01T10:22:10;10.52;;;2.60;;
20908;SDS011;10614;53.198;6.570;2023-08-01T10:24:13;7.35;;;2.17;;
20908;SDS011;10614;53.198;6.570;2023-08-01T10:26:17;4.47;;;1.88;;
20908;SDS011;10614;53.198;6.570;2023-08-01T10:28:18;7.65;;;2.15;;
20908;SDS011;10614;53.198;6.570;2023-08-01T10:30:25;6.53;;;1.83;;
20908;SDS011;10614;53.198;6.570;2023-08-01T10:32:31;7.28;;;2.30;;
20908;SDS011;10614;53.198;6.570;2023-08-01T10:34:38;8.85;;;2.10;;
20908;SDS011;10614;53.198;6.570;2023-08-01T10:36:41;9.48;;;2.30;;
20908;SDS011;10614;53.198;6.570;2023-08-01T10:38:56;8.07;;;2.20;;
20908;SDS011;10614;53.198;6.570;2023-08-01T10:40:59;7.32;;;2.30;;
20908;SDS011;10614;53.198;6.570;2023-08-01T10:43:06;8.40;;;2.10;;
20908;SDS011;10614;53.198;6.570;2023-08-01T10:45:22;10.90;;;2.05;;
20908;SDS011;10614;53.198;6.570;2023-08-01T10:47:27;10.00;;;2.20;;
20908;SDS011;10614;53.198;6.570;2023-08-01T10:49:35;8.40;;;2.10;;
20908;SDS011;10614;53.198;6.570;2023-08-01T10:51:53;9.52;;;2.20;;
20908;SDS011;10614;53.198;6.570;2023-08-01T10:54:06;7.57;;;1.95;;
20908;SDS011;10614;53.198;6.570;2023-08-01T10:56:17;7.88;;;2.00;;
20908;SDS011;10614;53.198;6.570;2023-08-01T10:58:26;9.65;;;1.88;;
20908;SDS011;10614;53.198;6.570;2023-08-01T11:00:46;7.72;;;2.03;;
20908;SDS011;10614;53.198;6.570;2023-08-01T11:03:13;8.38;;;2.20;;
20908;SDS011;10614;53.198;6.570;2023-08-01T11:05:20;10.95;;;2.40;;
20908;SDS011;10614;53.198;6.570;2023-08-01T11:07:28;11.00;;;2.47;;
20908;SDS011;10614;53.198;6.570;2023-08-01T11:14:44;8.35;;;2.28;;
20908;SDS011;10614;53.198;6.570;2023-08-01T11:16:55;5.95;;;1.77;;
20908;SDS011;10614;53.198;6.570;2023-08-01T11:19:18;6.53;;;1.98;;
20908;SDS011;10614;53.198;6.570;2023-08-01T11:21:36;6.93;;;1.67;;
20908;SDS011;10614;53.198;6.570;2023-08-01T11:23:47;5.38;;;1.70;;
20908;SDS011;10614;53.198;6.570;2023-08-01T11:25:58;7.47;;;1.83;;
20908;SDS011;10614;53.198;6.570;2023-08-01T11:28:01;6.03;;;1.73;;
20908;SDS011;10614;53.198;6.570;2023-08-01T11:30:07;7.80;;;1.88;;
20908;SDS011;10614;53.198;6.570;2023-08-01T11:32:09;4.82;;;1.40;;
20908;SDS011;10614;53.198;6.570;2023-08-01T11:34:12;10.50;;;2.05;;
20908;SDS011;10614;53.198;6.570;2023-08-01T11:36:14;9.90;;;1.80;;
20908;SDS011;10614;53.198;6.570;2023-08-01T11:38:16;6.40;;;1.52;;
20908;SDS011;10614;53.198;6.570;2023-08-01T11:40:18;7.45;;;1.50;;
20908;SDS011;10614;53.198;6.570;2023-08-01T11:42:22;4.65;;;1.63;;
20908;SDS011;10614;53.198;6.570;2023-08-01T11:44:24;7.82;;;1.63;;
20908;SDS011;10614;53.198;6.570;2023-08-01T11:46:31;8.23;;;1.52;;
20908;SDS011;10614;53.198;6.570;2023-08-01T11:48:33;4.82;;;1.30;;
20908;SDS011;10614;53.198;6.570;2023-08-01T11:50:36;5.47;;;1.75;;
20908;SDS011;10614;53.198;6.570;2023-08-01T11:52:38;6.03;;;1.38;;
20908;SDS011;10614;53.198;6.570;2023-08-01T11:54:43;5.28;;;1.77;;
20908;SDS011;10614;53.198;6.570;2023-08-01T11:56:46;5.28;;;1.60;;
20908;SDS011;10614;53.198;6.570;2023-08-01T11:58:48;4.10;;;1.17;;
20908;SDS011;10614;53.198;6.570;2023-08-01T12:00:49;8.52;;;1.67;;
20908;SDS011;10614;53.198;6.570;2023-08-01T12:03:02;5.18;;;1.30;;
20908;SDS011;10614;53.198;6.570;2023-08-01T12:05:05;7.05;;;1.50;;
20908;SDS011;10614;53.198;6.570;2023-08-01T12:07:12;5.57;;;1.30;;
20908;SDS011;10614;53.198;6.570;2023-08-01T12:09:14;4.95;;;1.20;;
20908;SDS011;10614;53.198;6.570;2023-08-01T12:11:20;7.50;;;1.55;;
20908;SDS011;10614;53.198;6.570;2023-08-01T12:13:23;6.43;;;1.77;;
20908;SDS011;10614;53.198;6.570;2023-08-01T12:15:25;7.00;;;1.33;;
20908;SDS011;10614;53.198;6.570;2023-08-01T12:17:27;9.32;;;1.40;;
20908;SDS011;10614;53.198;6.570;2023-08-01T12:19:31;7.90;;;1.60;;
20908;SDS011;10614;53.198;6.570;2023-08-01T12:21:34;5.22;;;1.70;;
20908;SDS011;10614;53.198;6.570;2023-08-01T12:26:32;9.90;;;2.25;;
20908;SDS011;10614;53.198;6.570;2023-08-01T12:29:25;9.63;;;2.83;;